sensor_id;sensor_type;location;lat;lon;timestamp;P1;durP1;ratioP1;P2;durP2;ratioP2
83026;SDS011;72842;56.038;12.706;2023-11-19T00:01:00;2.42;;;2.15;;
83026;SDS011;72842;56.038;12.706;2023-11-19T00:03:26;2.67;;;2.47;;
83026;SDS011;72842;56.038;12.706;2023-11-19T00:05:51;3.08;;;2.25;;
83026;SDS011;72842;56.038;12.706;2023-11-19T00:08:17;2.63;;;2.40;;
83026;SDS011;72842;56.038;12.706;2023-11-19T00:10:42;2.70;;;2.50;;
83026;SDS011;72842;56.038;12.706;2023-11-19T00:13:08;2.47;;;2.20;;
83026;SDS011;72842;56.038;12.706;2023-11-19T00:15:35;4.38;;;2.35;;
83026;SDS011;72842;56.038;12.706;2023-11-19T00:18:00;2.80;;;2.15;;
83026;SDS011;72842;56.038;12.706;2023-11-19T00:20:29;3.10;;;2.45;;
83026;SDS011;72842;56.038;12.706;2023-11-19T00:22:55;2.63;;;2.42;;
83026;SDS011;72842;56.038;12.706;2023-11-19T00:25:20;2.15;;;1.92;;
83026;SDS011;72842;56.038;12.706;2023-11-19T00:27:50;2.25;;;1.70;;
83026;SDS011;72842;56.038;12.706;2023-11-19T00:30:16;2.70;;;2.50;;
83026;SDS011;72842;56.038;12.706;2023-11-19T00:32:41;3.55;;;2.45;;
83026;SDS011;72842;56.038;12.706;2023-11-19T00:35:07;4.18;;;2.80;;
83026;SDS011;72842;56.038;12.706;2023-11-19T00:37:35;2.45;;;2.22;;
83026;SDS011;72842;56.038;12.706;2023-11-19T00:40:00;3.58;;;3.28;;
83026;SDS011;72842;56.038;12.706;2023-11-19T00:42:26;3.42;;;2.42;;
83026;SDS011;72842;56.038;12.706;2023-11-19T00:44:51;2.72;;;2.35;;
83026;SDS011;72842;56.038;12.706;2023-11-19T00:47:17;2.75;;;2.13;;
83026;SDS011;72842;56.038;12.706;2023-11-19T00:49:46;2.80;;;1.98;;
83026;SDS011;72842;56.038;12.706;2023-11-19T00:52:14;2.35;;;2.15;;
83026;SDS011;72842;56.038;12.706;2023-11-19T00:54:40;2.42;;;1.98;;
83026;SDS011;72842;56.038;12.706;2023-11-19T00:57:05;2.00;;;1.80;;
83026;SDS011;72842;56.038;12.706;2023-11-19T00:59:31;1.85;;;1.30;;
83026;SDS011;72842;56.038;12.706;2023-11-19T01:01:57;3.10;;;1.92;;
83026;SDS011;72842;56.038;12.706;2023-11-19T01:04:24;2.25;;;2.05;;
83026;SDS011;72842;56.038;12.706;2023-11-19T01:06:49;2.30;;;2.10;;
83026;SDS011;72842;56.038;12.706;2023-11-19T01:09:15;2.47;;;2.28;;
83026;SDS011;72842;56.038;12.706;2023-11-19T01:11:40;2.33;;;2.10;;
83026;SDS011;72842;56.038;12.706;2023-11-19T01:14:06;1.75;;;1.65;;
83026;SDS011;72842;56.038;12.706;2023-11-19T01:16:31;2.45;;;2.25;;
83026;SDS011;72842;56.038;12.706;2023-11-19T01:18:57;3.60;;;2.72;;
83026;SDS011;72842;56.038;12.706;2023-11-19T01:21:22;2.42;;;2.22;;
83026;SDS011;72842;56.038;12.706;2023-11-19T01:23:48;2.72;;;2.22;;
83026;SDS011;72842;56.038;12.706;2023-11-19T01:26:13;2.53;;;2.33;;
83026;SDS011;72842;56.038;12.706;2023-11-19T01:28:39;2.42;;;2.25;;
83026;SDS011;72842;56.038;12.706;2023-11-19T01:31:10;2.50;;;2.30;;
83026;SDS011;72842;56.038;12.706;2023-11-19T01:33:37;3.20;;;3.00;;
83026;SDS011;72842;56.038;12.706;2023-11-19T01:36:03;1.85;;;1.75;;
83026;SDS011;72842;56.038;12.706;2023-11-19T01:38:29;2.17;;;1.65;;
83026;SDS011;72842;56.038;12.706;2023-11-19T01:40:58;2.38;;;2.17;;
83026;SDS011;72842;56.038;12.706;2023-11-19T01:43:30;1.90;;;1.80;;
83026;SDS011;72842;56.038;12.706;2023-11-19T01:45:58;2.30;;;2.20;;
83026;SDS011;72842;56.038;12.706;2023-11-19T01:48:23;2.38;;;1.90;;
83026;SDS011;72842;56.038;12.706;2023-11-19T01:50:49;2.78;;;2.17;;
83026;SDS011;72842;56.038;12.706;2023-11-19T01:53:17;2.65;;;2.08;;
83026;SDS011;72842;56.038;12.706;2023-11-19T01:55:43;2.42;;;2.22;;
83026;SDS011;72842;56.038;12.706;2023-11-19T01:58:08;2.55;;;2.15;;
83026;SDS011;72842;56.038;12.706;2023-11-19T02:00:34;2.15;;;1.95;;
83026;SDS011;72842;56.038;12.706;2023-11-19T02:03:00;2.40;;;2.03;;
83026;SDS011;72842;56.038;12.706;2023-11-19T02:05:25;2.05;;;1.73;;
83026;SDS011;72842;56.038;12.706;2023-11-19T02:07:51;0.98;;;0.88;;
83026;SDS011;72842;56.038;12.706;2023-11-19T02:10:17;2.20;;;1.90;;
83026;SDS011;72842;56.038;12.706;2023-11-19T02:12:44;1.88;;;1.73;;
83026;SDS011;72842;56.038;12.706;2023-11-19T02:15:10;2.30;;;2.10;;
83026;SDS011;72842;56.038;12.706;2023-11-19T02:17:36;2.22;;;2.03;;
83026;SDS011;72842;56.038;12.706;2023-11-19T02:20:05;1.83;;;1.52;;
83026;SDS011;72842;56.038;12.706;2023-11-19T02:22:36;1.63;;;1.52;;
83026;SDS011;72842;56.038;12.706;2023-11-19T02:25:04;2.25;;;2.13;;
83026;SDS011;72842;56.038;12.706;2023-11-19T02:30:21;2.42;;;2.15;;
83026;SDS011;72842;56.038;12.706;2023-11-19T02:32:51;2.83;;;2.63;;
83026;SDS011;72842;56.038;12.706;2023-11-19T02:35:22;2.30;;;2.05;;
83026;SDS011;72842;56.038;12.706;2023-11-19T02:37:48;2.42;;;2.20;;
83026;SDS011;72842;56.038;12.706;2023-11-19T02:40:14;2.78;;;2.58;;
83026;SDS011;72842;56.038;12.706;2023-11-19T02:42:40;2.65;;;1.83;;
83026;SDS011;72842;56.038;12.706;2023-11-19T02:45:05;2.33;;;2.10;;
83026;SDS011;72842;56.038;12.706;2023-11-19T02:47:32;2.25;;;2.05;;
83026;SDS011;72842;56.038;12.706;2023-11-19T02:49:58;2.47;;;2.28;;
83026;SDS011;72842;56.038;12.706;2023-11-19T02:52:24;2.65;;;2.42;;
83026;SDS011;72842;56.038;12.706;2023-11-19T02:54:50;2.58;;;2.38;;
83026;SDS011;72842;56.038;12.706;2023-11-19T02:57:16;2.72;;;2.53;;
83026;SDS011;72842;56.038;12.706;2023-11-19T02:59:44;2.45;;;2.25;;
83026;SDS011;72842;56.038;12.706;2023-11-19T03:02:10;3.28;;;2.97;;
83026;SDS011;72842;56.038;12.706;2023-11-19T03:04:37;2.78;;;2.58;;
83026;SDS011;72842;56.038;12.706;2023-11-19T03:07:04;2.67;;;2.33;;
83026;SDS011;72842;56.038;12.706;2023-11-19T03:09:30;2.80;;;2.60;;
83026;SDS011;72842;56.038;12.706;2023-11-19T03:11:56;3.30;;;2.53;;
83026;SDS011;72842;56.038;12.706;2023-11-19T03:14:21;3.05;;;2.70;;
83026;SDS011;72842;56.038;12.706;2023-11-19T03:16:48;5.43;;;2.80;;
83026;SDS011;72842;56.038;12.706;2023-11-19T03:19:13;2.70;;;2.47;;
83026;SDS011;72842;56.038;12.706;2023-11-19T03:21:39;3.08;;;2.70;;
83026;SDS011;72842;56.038;12.706;2023-11-19T03:24:04;4.30;;;3.22;;
83026;SDS011;72842;56.038;12.706;2023-11-19T03:26:30;5.72;;;3.45;;
83026;SDS011;72842;56.038;12.706;2023-11-19T03:28:55;3.60;;;2.92;;
83026;SDS011;72842;56.038;12.706;2023-11-19T03:31:22;3.67;;;2.95;;
83026;SDS011;72842;56.038;12.706;2023-11-19T03:33:48;4.43;;;3.70;;
83026;SDS011;72842;56.038;12.706;2023-11-19T03:36:13;3.83;;;3.17;;
83026;SDS011;72842;56.038;12.706;2023-11-19T03:38:39;4.40;;;4.00;;
83026;SDS011;72842;56.038;12.706;2023-11-19T03:41:11;6.03;;;2.72;;
83026;SDS011;72842;56.038;12.706;2023-11-19T03:43:37;5.00;;;3.13;;
83026;SDS011;72842;56.038;12.706;2023-11-19T03:46:03;5.65;;;3.63;;
83026;SDS011;72842;56.038;12.706;2023-11-19T03:48:30;6.55;;;3.78;;
83026;SDS011;72842;56.038;12.706;2023-11-19T03:50:56;4.72;;;3.70;;
83026;SDS011;72842;56.038;12.706;2023-11-19T03:53:21;10.10;;;4.25;;
83026;SDS011;72842;56.038;12.706;2023-11-19T03:55:48;5.68;;;3.53;;
83026;SDS011;72842;56.038;12.706;2023-11-19T03:58:15;6.90;;;4.22;;
83026;SDS011;72842;56.038;12.706;2023-11-19T04:00:40;5.55;;;5.00;;
83026;SDS011;72842;56.038;12.706;2023-11-19T04:03:06;8.30;;;4.70;;
83026;SDS011;72842;56.038;12.706;2023-11-19T04:05:31;8.23;;;3.97;;
83026;SDS011;72842;56.038;12.706;2023-11-19T04:07:56;6.88;;;4.50;;
83026;SDS011;72842;56.038;12.706;2023-11-19T04:10:22;8.55;;;5.13;;
83026;SDS011;72842;56.038;12.706;2023-11-19T04:12:47;7.07;;;4.68;;
83026;SDS011;72842;56.038;12.706;2023-11-19T04:15:14;10.13;;;5.93;;
83026;SDS011;72842;56.038;12.706;2023-11-19T04:17:40;8.30;;;5.93;;
83026;SDS011;72842;56.038;12.706;2023-11-19T04:20:06;7.35;;;5.28;;
83026;SDS011;72842;56.038;12.706;2023-11-19T04:22:36;7.53;;;6.10;;
83026;SDS011;72842;56.038;12.706;2023-11-19T04:25:01;8.45;;;5.28;;
83026;SDS011;72842;56.038;12.706;2023-11-19T04:27:27;11.45;;;5.25;;
83026;SDS011;72842;56.038;12.706;2023-11-19T04:29:52;10.18;;;6.22;;
83026;SDS011;72842;56.038;12.706;2023-11-19T04:32:18;11.52;;;6.85;;
83026;SDS011;72842;56.038;12.706;2023-11-19T04:34:44;8.95;;;4.85;;
83026;SDS011;72842;56.038;12.706;2023-11-19T04:37:09;13.85;;;6.90;;
83026;SDS011;72842;56.038;12.706;2023-11-19T04:39:35;9.60;;;6.25;;
83026;SDS011;72842;56.038;12.706;2023-11-19T04:42:00;10.57;;;7.50;;
83026;SDS011;72842;56.038;12.706;2023-11-19T04:44:26;9.75;;;5.45;;
83026;SDS011;72842;56.038;12.706;2023-11-19T04:46:51;10.70;;;7.07;;
83026;SDS011;72842;56.038;12.706;2023-11-19T04:49:17;9.07;;;6.03;;
83026;SDS011;72842;56.038;12.706;2023-11-19T04:51:44;8.88;;;5.93;;
83026;SDS011;72842;56.038;12.706;2023-11-19T04:54:13;9.90;;;6.40;;
83026;SDS011;72842;56.038;12.706;2023-11-19T04:56:39;10.43;;;7.72;;
83026;SDS011;72842;56.038;12.706;2023-11-19T04:59:05;11.70;;;7.15;;
83026;SDS011;72842;56.038;12.706;2023-11-19T05:01:34;8.93;;;6.28;;
83026;SDS011;72842;56.038;12.706;2023-11-19T05:04:00;9.45;;;6.75;;
83026;SDS011;72842;56.038;12.706;2023-11-19T05:06:27;10.25;;;7.07;;
83026;SDS011;72842;56.038;12.706;2023-11-19T05:08:54;8.07;;;6.03;;
83026;SDS011;72842;56.038;12.706;2023-11-19T05:11:20;9.00;;;6.57;;
83026;SDS011;72842;56.038;12.706;2023-11-19T05:13:46;7.60;;;5.72;;
83026;SDS011;72842;56.038;12.706;2023-11-19T05:16:11;8.52;;;6.55;;
83026;SDS011;72842;56.038;12.706;2023-11-19T05:18:39;7.63;;;6.13;;
83026;SDS011;72842;56.038;12.706;2023-11-19T05:21:05;9.07;;;5.50;;
83026;SDS011;72842;56.038;12.706;2023-11-19T05:23:32;7.85;;;6.40;;
83026;SDS011;72842;56.038;12.706;2023-11-19T05:25:58;8.18;;;5.40;;
83026;SDS011;72842;56.038;12.706;2023-11-19T05:28:25;7.20;;;6.28;;
83026;SDS011;72842;56.038;12.706;2023-11-19T05:30:51;10.15;;;6.20;;
83026;SDS011;72842;56.038;12.706;2023-11-19T05:33:16;7.38;;;6.15;;
83026;SDS011;72842;56.038;12.706;2023-11-19T05:35:42;7.40;;;5.53;;
83026;SDS011;72842;56.038;12.706;2023-11-19T05:38:07;7.25;;;4.60;;
83026;SDS011;72842;56.038;12.706;2023-11-19T05:40:34;5.93;;;5.20;;
83026;SDS011;72842;56.038;12.706;2023-11-19T05:43:00;9.15;;;6.05;;
83026;SDS011;72842;56.038;12.706;2023-11-19T05:45:25;8.27;;;6.20;;
83026;SDS011;72842;56.038;12.706;2023-11-19T05:47:51;6.85;;;5.10;;
83026;SDS011;72842;56.038;12.706;2023-11-19T05:50:17;7.45;;;5.35;;
83026;SDS011;72842;56.038;12.706;2023-11-19T05:52:43;7.28;;;6.05;;
83026;SDS011;72842;56.038;12.706;2023-11-19T05:55:09;8.75;;;5.57;;
83026;SDS011;72842;56.038;12.706;2023-11-19T05:57:35;6.55;;;5.50;;
83026;SDS011;72842;56.038;12.706;2023-11-19T06:00:05;10.23;;;6.55;;
83026;SDS011;72842;56.038;12.706;2023-11-19T06:02:34;9.63;;;7.38;;
83026;SDS011;72842;56.038;12.706;2023-11-19T06:05:00;9.57;;;5.60;;
83026;SDS011;72842;56.038;12.706;2023-11-19T06:07:26;9.52;;;7.20;;
83026;SDS011;72842;56.038;12.706;2023-11-19T06:09:52;8.05;;;6.43;;
83026;SDS011;72842;56.038;12.706;2023-11-19T06:12:18;7.03;;;6.32;;
83026;SDS011;72842;56.038;12.706;2023-11-19T06:14:43;8.93;;;6.15;;
83026;SDS011;72842;56.038;12.706;2023-11-19T06:17:09;6.90;;;5.25;;
83026;SDS011;72842;56.038;12.706;2023-11-19T06:19:36;8.02;;;6.13;;
83026;SDS011;72842;56.038;12.706;2023-11-19T06:22:03;9.63;;;6.18;;
83026;SDS011;72842;56.038;12.706;2023-11-19T06:24:28;9.20;;;7.75;;
83026;SDS011;72842;56.038;12.706;2023-11-19T06:26:54;11.27;;;8.18;;
83026;SDS011;72842;56.038;12.706;2023-11-19T06:29:19;11.07;;;9.95;;
83026;SDS011;72842;56.038;12.706;2023-11-19T06:31:45;17.65;;;8.48;;
83026;SDS011;72842;56.038;12.706;2023-11-19T06:34:13;11.15;;;6.88;;
83026;SDS011;72842;56.038;12.706;2023-11-19T06:36:39;9.85;;;6.28;;
83026;SDS011;72842;56.038;12.706;2023-11-19T06:39:04;10.65;;;8.25;;
83026;SDS011;72842;56.038;12.706;2023-11-19T06:41:31;10.88;;;7.93;;
83026;SDS011;72842;56.038;12.706;2023-11-19T06:43:56;9.00;;;5.43;;
83026;SDS011;72842;56.038;12.706;2023-11-19T06:46:22;14.10;;;8.57;;
83026;SDS011;72842;56.038;12.706;2023-11-19T06:48:47;13.00;;;8.23;;
83026;SDS011;72842;56.038;12.706;2023-11-19T06:51:13;12.80;;;7.95;;
83026;SDS011;72842;56.038;12.706;2023-11-19T06:53:38;13.48;;;9.32;;
83026;SDS011;72842;56.038;12.706;2023-11-19T06:56:23;9.65;;;7.75;;
83026;SDS011;72842;56.038;12.706;2023-11-19T06:58:49;10.73;;;7.78;;
83026;SDS011;72842;56.038;12.706;2023-11-19T07:01:18;12.93;;;8.13;;
83026;SDS011;72842;56.038;12.706;2023-11-19T07:03:47;13.45;;;10.13;;
83026;SDS011;72842;56.038;12.706;2023-11-19T07:06:13;11.82;;;8.85;;
83026;SDS011;72842;56.038;12.706;2023-11-19T07:08:39;13.25;;;9.02;;
83026;SDS011;72842;56.038;12.706;2023-11-19T07:11:06;11.18;;;7.82;;
83026;SDS011;72842;56.038;12.706;2023-11-19T07:13:34;12.88;;;8.38;;
83026;SDS011;72842;56.038;12.706;2023-11-19T07:16:00;12.77;;;8.55;;
83026;SDS011;72842;56.038;12.706;2023-11-19T07:18:25;16.10;;;10.18;;
83026;SDS011;72842;56.038;12.706;2023-11-19T07:20:51;14.80;;;9.85;;
83026;SDS011;72842;56.038;12.706;2023-11-19T07:23:17;12.05;;;8.73;;
83026;SDS011;72842;56.038;12.706;2023-11-19T07:25:42;12.00;;;9.43;;
83026;SDS011;72842;56.038;12.706;2023-11-19T07:28:10;12.93;;;10.05;;
83026;SDS011;72842;56.038;12.706;2023-11-19T07:30:35;16.45;;;10.70;;
83026;SDS011;72842;56.038;12.706;2023-11-19T07:33:01;16.70;;;10.35;;
83026;SDS011;72842;56.038;12.706;2023-11-19T07:35:29;15.10;;;9.82;;
83026;SDS011;72842;56.038;12.706;2023-11-19T07:37:55;12.98;;;10.30;;
83026;SDS011;72842;56.038;12.706;2023-11-19T07:40:22;15.73;;;8.52;;
83026;SDS011;72842;56.038;12.706;2023-11-19T07:42:48;10.65;;;9.02;;
83026;SDS011;72842;56.038;12.706;2023-11-19T07:45:13;14.75;;;10.23;;
83026;SDS011;72842;56.038;12.706;2023-11-19T07:47:39;16.20;;;9.15;;
83026;SDS011;72842;56.038;12.706;2023-11-19T07:50:05;13.90;;;10.30;;
83026;SDS011;72842;56.038;12.706;2023-11-19T07:52:30;12.75;;;9.88;;
83026;SDS011;72842;56.038;12.706;2023-11-19T07:54:56;13.90;;;9.10;;
83026;SDS011;72842;56.038;12.706;2023-11-19T07:57:22;12.90;;;10.43;;
83026;SDS011;72842;56.038;12.706;2023-11-19T07:59:49;13.55;;;9.43;;
83026;SDS011;72842;56.038;12.706;2023-11-19T08:02:14;14.50;;;10.50;;
83026;SDS011;72842;56.038;12.706;2023-11-19T08:04:39;14.82;;;9.88;;
83026;SDS011;72842;56.038;12.706;2023-11-19T08:07:09;12.65;;;8.43;;
83026;SDS011;72842;56.038;12.706;2023-11-19T08:09:35;14.30;;;9.50;;
83026;SDS011;72842;56.038;12.706;2023-11-19T08:12:02;16.10;;;10.30;;
83026;SDS011;72842;56.038;12.706;2023-11-19T08:14:28;14.70;;;10.20;;
83026;SDS011;72842;56.038;12.706;2023-11-19T08:16:54;17.25;;;9.65;;
83026;SDS011;72842;56.038;12.706;2023-11-19T08:19:19;13.77;;;9.80;;
83026;SDS011;72842;56.038;12.706;2023-11-19T08:21:45;14.43;;;9.60;;
83026;SDS011;72842;56.038;12.706;2023-11-19T08:24:10;13.60;;;10.15;;
83026;SDS011;72842;56.038;12.706;2023-11-19T08:26:36;14.82;;;10.63;;
83026;SDS011;72842;56.038;12.706;2023-11-19T08:29:01;16.08;;;10.02;;
83026;SDS011;72842;56.038;12.706;2023-11-19T08:31:26;16.98;;;10.02;;
83026;SDS011;72842;56.038;12.706;2023-11-19T08:33:52;13.00;;;10.60;;
83026;SDS011;72842;56.038;12.706;2023-11-19T08:36:17;14.43;;;9.93;;
83026;SDS011;72842;56.038;12.706;2023-11-19T08:38:43;14.73;;;10.55;;
83026;SDS011;72842;56.038;12.706;2023-11-19T08:41:08;13.10;;;9.57;;
83026;SDS011;72842;56.038;12.706;2023-11-19T08:43:34;12.80;;;8.48;;
83026;SDS011;72842;56.038;12.706;2023-11-19T08:45:59;11.07;;;8.85;;
83026;SDS011;72842;56.038;12.706;2023-11-19T08:48:25;13.05;;;9.40;;
83026;SDS011;72842;56.038;12.706;2023-11-19T08:50:51;13.27;;;9.05;;
83026;SDS011;72842;56.038;12.706;2023-11-19T08:53:16;14.00;;;9.48;;
83026;SDS011;72842;56.038;12.706;2023-11-19T08:55:41;11.80;;;8.65;;
83026;SDS011;72842;56.038;12.706;2023-11-19T08:58:07;12.00;;;8.43;;
83026;SDS011;72842;56.038;12.706;2023-11-19T09:00:32;10.40;;;7.63;;
83026;SDS011;72842;56.038;12.706;2023-11-19T09:02:58;10.27;;;7.72;;
83026;SDS011;72842;56.038;12.706;2023-11-19T09:05:24;10.00;;;6.85;;
83026;SDS011;72842;56.038;12.706;2023-11-19T09:07:49;9.50;;;7.10;;
83026;SDS011;72842;56.038;12.706;2023-11-19T09:10:15;12.07;;;7.05;;
83026;SDS011;72842;56.038;12.706;2023-11-19T09:12:41;12.95;;;6.95;;
83026;SDS011;72842;56.038;12.706;2023-11-19T09:15:06;7.90;;;5.45;;
83026;SDS011;72842;56.038;12.706;2023-11-19T09:17:32;8.93;;;6.43;;
83026;SDS011;72842;56.038;12.706;2023-11-19T09:19:58;11.20;;;7.50;;
83026;SDS011;72842;56.038;12.706;2023-11-19T09:22:23;7.05;;;5.70;;
83026;SDS011;72842;56.038;12.706;2023-11-19T09:24:49;7.18;;;5.82;;
83026;SDS011;72842;56.038;12.706;2023-11-19T09:27:14;8.18;;;6.50;;
83026;SDS011;72842;56.038;12.706;2023-11-19T09:29:40;8.05;;;5.88;;
83026;SDS011;72842;56.038;12.706;2023-11-19T09:32:06;8.25;;;5.70;;
83026;SDS011;72842;56.038;12.706;2023-11-19T09:34:32;8.95;;;5.22;;
83026;SDS011;72842;56.038;12.706;2023-11-19T09:36:58;6.68;;;5.22;;
83026;SDS011;72842;56.038;12.706;2023-11-19T09:39:23;7.15;;;5.47;;
83026;SDS011;72842;56.038;12.706;2023-11-19T09:41:50;5.65;;;4.25;;
83026;SDS011;72842;56.038;12.706;2023-11-19T09:44:16;7.07;;;4.00;;
83026;SDS011;72842;56.038;12.706;2023-11-19T09:46:44;6.90;;;4.43;;
83026;SDS011;72842;56.038;12.706;2023-11-19T09:49:10;6.35;;;3.97;;
83026;SDS011;72842;56.038;12.706;2023-11-19T09:51:38;7.20;;;5.25;;
83026;SDS011;72842;56.038;12.706;2023-11-19T09:54:03;6.20;;;4.78;;
83026;SDS011;72842;56.038;12.706;2023-11-19T09:56:29;7.53;;;5.70;;
83026;SDS011;72842;56.038;12.706;2023-11-19T09:58:55;7.18;;;4.05;;
83026;SDS011;72842;56.038;12.706;2023-11-19T10:01:21;7.45;;;4.70;;
83026;SDS011;72842;56.038;12.706;2023-11-19T10:03:47;7.18;;;4.22;;
83026;SDS011;72842;56.038;12.706;2023-11-19T10:06:14;5.32;;;3.63;;
83026;SDS011;72842;56.038;12.706;2023-11-19T10:08:40;7.28;;;4.07;;
83026;SDS011;72842;56.038;12.706;2023-11-19T10:11:07;4.68;;;3.90;;
83026;SDS011;72842;56.038;12.706;2023-11-19T10:13:36;5.00;;;4.50;;
83026;SDS011;72842;56.038;12.706;2023-11-19T10:16:09;4.20;;;3.40;;
83026;SDS011;72842;56.038;12.706;2023-11-19T10:18:36;4.22;;;3.63;;
83026;SDS011;72842;56.038;12.706;2023-11-19T10:21:03;6.38;;;3.78;;
83026;SDS011;72842;56.038;12.706;2023-11-19T10:23:53;5.60;;;4.03;;
83026;SDS011;72842;56.038;12.706;2023-11-19T10:26:19;4.20;;;3.45;;
83026;SDS011;72842;56.038;12.706;2023-11-19T10:28:46;4.05;;;3.65;;
83026;SDS011;72842;56.038;12.706;2023-11-19T10:31:13;8.52;;;4.20;;
83026;SDS011;72842;56.038;12.706;2023-11-19T10:33:39;5.03;;;3.40;;
83026;SDS011;72842;56.038;12.706;2023-11-19T10:36:04;3.33;;;2.55;;
83026;SDS011;72842;56.038;12.706;2023-11-19T10:38:30;3.38;;;2.75;;
83026;SDS011;72842;56.038;12.706;2023-11-19T10:40:56;4.10;;;3.08;;
83026;SDS011;72842;56.038;12.706;2023-11-19T10:43:21;3.85;;;2.80;;
83026;SDS011;72842;56.038;12.706;2023-11-19T10:45:48;4.45;;;2.97;;
83026;SDS011;72842;56.038;12.706;2023-11-19T10:48:13;3.88;;;3.15;;
83026;SDS011;72842;56.038;12.706;2023-11-19T10:50:43;3.53;;;3.22;;
83026;SDS011;72842;56.038;12.706;2023-11-19T10:53:10;4.80;;;3.42;;
83026;SDS011;72842;56.038;12.706;2023-11-19T10:55:40;3.80;;;2.95;;
83026;SDS011;72842;56.038;12.706;2023-11-19T10:58:07;6.50;;;3.80;;
83026;SDS011;72842;56.038;12.706;2023-11-19T11:03:16;5.20;;;4.18;;
83026;SDS011;72842;56.038;12.706;2023-11-19T11:05:43;3.63;;;3.33;;
83026;SDS011;72842;56.038;12.706;2023-11-19T11:08:14;4.03;;;2.97;;
83026;SDS011;72842;56.038;12.706;2023-11-19T11:10:43;3.28;;;2.97;;
83026;SDS011;72842;56.038;12.706;2023-11-19T11:13:10;3.00;;;2.63;;
83026;SDS011;72842;56.038;12.706;2023-11-19T11:15:37;4.60;;;3.03;;
83026;SDS011;72842;56.038;12.706;2023-11-19T11:18:03;4.07;;;2.45;;
83026;SDS011;72842;56.038;12.706;2023-11-19T11:20:31;3.20;;;2.30;;
83026;SDS011;72842;56.038;12.706;2023-11-19T11:39:33;3.55;;;2.92;;
83026;SDS011;72842;56.038;12.706;2023-11-19T11:50:08;2.75;;;2.20;;
83026;SDS011;72842;56.038;12.706;2023-11-19T11:55:27;2.75;;;1.83;;
83026;SDS011;72842;56.038;12.706;2023-11-19T11:57:53;2.38;;;2.17;;
83026;SDS011;72842;56.038;12.706;2023-11-19T12:00:38;3.60;;;2.08;;
83026;SDS011;72842;56.038;12.706;2023-11-19T12:03:05;2.33;;;2.13;;
83026;SDS011;72842;56.038;12.706;2023-11-19T12:05:32;2.60;;;2.40;;
83026;SDS011;72842;56.038;12.706;2023-11-19T12:08:03;3.47;;;2.15;;
83026;SDS011;72842;56.038;12.706;2023-11-19T12:10:32;3.40;;;2.65;;
83026;SDS011;72842;56.038;12.706;2023-11-19T12:13:02;3.50;;;2.58;;
83026;SDS011;72842;56.038;12.706;2023-11-19T12:17:58;3.15;;;2.35;;
83026;SDS011;72842;56.038;12.706;2023-11-19T12:20:24;2.50;;;2.30;;
83026;SDS011;72842;56.038;12.706;2023-11-19T12:22:51;3.22;;;2.17;;
83026;SDS011;72842;56.038;12.706;2023-11-19T12:25:18;2.50;;;2.30;;
83026;SDS011;72842;56.038;12.706;2023-11-19T12:30:24;3.35;;;2.40;;
83026;SDS011;72842;56.038;12.706;2023-11-19T12:32:50;3.35;;;2.78;;
83026;SDS011;72842;56.038;12.706;2023-11-19T12:35:18;3.00;;;2.80;;
83026;SDS011;72842;56.038;12.706;2023-11-19T12:37:50;3.15;;;2.35;;
83026;SDS011;72842;56.038;12.706;2023-11-19T12:40:24;3.42;;;3.13;;
83026;SDS011;72842;56.038;12.706;2023-11-19T12:42:51;2.50;;;2.30;;
83026;SDS011;72842;56.038;12.706;2023-11-19T12:45:18;2.92;;;2.63;;
83026;SDS011;72842;56.038;12.706;2023-11-19T12:47:45;3.38;;;2.45;;
83026;SDS011;72842;56.038;12.706;2023-11-19T12:50:17;3.88;;;2.80;;
83026;SDS011;72842;56.038;12.706;2023-11-19T12:52:54;3.28;;;2.47;;
83026;SDS011;72842;56.038;12.706;2023-11-19T12:55:28;2.92;;;2.63;;
83026;SDS011;72842;56.038;12.706;2023-11-19T12:57:54;3.10;;;2.63;;
83026;SDS011;72842;56.038;12.706;2023-11-19T13:00:21;3.17;;;2.90;;
83026;SDS011;72842;56.038;12.706;2023-11-19T13:02:50;2.65;;;2.30;;
83026;SDS011;72842;56.038;12.706;2023-11-19T13:05:32;3.28;;;2.97;;
83026;SDS011;72842;56.038;12.706;2023-11-19T13:07:59;3.03;;;2.72;;
83026;SDS011;72842;56.038;12.706;2023-11-19T13:10:25;2.78;;;2.58;;
83026;SDS011;72842;56.038;12.706;2023-11-19T13:13:05;2.47;;;2.17;;
83026;SDS011;72842;56.038;12.706;2023-11-19T13:15:35;2.30;;;2.10;;
83026;SDS011;72842;56.038;12.706;2023-11-19T13:18:00;3.10;;;2.88;;
83026;SDS011;72842;56.038;12.706;2023-11-19T13:20:27;3.33;;;3.13;;
83026;SDS011;72842;56.038;12.706;2023-11-19T13:22:53;2.92;;;2.38;;
83026;SDS011;72842;56.038;12.706;2023-11-19T13:25:20;2.53;;;2.00;;
83026;SDS011;72842;56.038;12.706;2023-11-19T13:27:46;2.53;;;2.30;;
83026;SDS011;72842;56.038;12.706;2023-11-19T13:30:11;3.38;;;2.50;;
83026;SDS011;72842;56.038;12.706;2023-11-19T13:32:37;3.45;;;3.15;;
83026;SDS011;72842;56.038;12.706;2023-11-19T13:35:04;3.40;;;3.10;;
83026;SDS011;72842;56.038;12.706;2023-11-19T13:37:30;4.43;;;4.05;;
83026;SDS011;72842;56.038;12.706;2023-11-19T13:39:55;3.22;;;2.83;;
83026;SDS011;72842;56.038;12.706;2023-11-19T13:42:21;3.55;;;3.13;;
83026;SDS011;72842;56.038;12.706;2023-11-19T13:44:46;3.60;;;3.22;;
83026;SDS011;72842;56.038;12.706;2023-11-19T13:47:12;5.63;;;3.40;;
83026;SDS011;72842;56.038;12.706;2023-11-19T13:49:38;5.93;;;2.92;;
83026;SDS011;72842;56.038;12.706;2023-11-19T13:52:04;4.47;;;3.67;;
83026;SDS011;72842;56.038;12.706;2023-11-19T13:54:30;3.58;;;3.28;;
83026;SDS011;72842;56.038;12.706;2023-11-19T13:56:56;4.35;;;3.08;;
83026;SDS011;72842;56.038;12.706;2023-11-19T13:59:23;4.22;;;3.28;;
83026;SDS011;72842;56.038;12.706;2023-11-19T14:01:48;4.60;;;3.15;;
83026;SDS011;72842;56.038;12.706;2023-11-19T14:04:14;3.50;;;2.75;;
83026;SDS011;72842;56.038;12.706;2023-11-19T14:06:40;3.00;;;2.70;;
83026;SDS011;72842;56.038;12.706;2023-11-19T14:09:06;3.33;;;3.03;;
83026;SDS011;72842;56.038;12.706;2023-11-19T14:11:32;3.13;;;2.72;;
83026;SDS011;72842;56.038;12.706;2023-11-19T14:13:57;3.88;;;3.55;;
83026;SDS011;72842;56.038;12.706;2023-11-19T14:16:26;3.33;;;3.03;;
83026;SDS011;72842;56.038;12.706;2023-11-19T14:18:52;3.97;;;2.53;;
83026;SDS011;72842;56.038;12.706;2023-11-19T14:21:18;3.42;;;3.03;;
83026;SDS011;72842;56.038;12.706;2023-11-19T14:23:43;4.35;;;3.40;;
83026;SDS011;72842;56.038;12.706;2023-11-19T14:26:09;3.72;;;3.35;;
83026;SDS011;72842;56.038;12.706;2023-11-19T14:28:35;4.22;;;3.83;;
83026;SDS011;72842;56.038;12.706;2023-11-19T14:31:00;5.47;;;4.90;;
83026;SDS011;72842;56.038;12.706;2023-11-19T14:33:26;7.65;;;5.80;;
83026;SDS011;72842;56.038;12.706;2023-11-19T14:35:51;6.90;;;5.45;;
83026;SDS011;72842;56.038;12.706;2023-11-19T14:38:17;6.25;;;4.68;;
83026;SDS011;72842;56.038;12.706;2023-11-19T14:40:42;5.93;;;4.80;;
83026;SDS011;72842;56.038;12.706;2023-11-19T14:43:08;5.00;;;4.30;;
83026;SDS011;72842;56.038;12.706;2023-11-19T14:45:37;5.57;;;5.07;;
83026;SDS011;72842;56.038;12.706;2023-11-19T14:48:02;5.78;;;5.05;;
83026;SDS011;72842;56.038;12.706;2023-11-19T14:50:28;7.05;;;5.90;;
83026;SDS011;72842;56.038;12.706;2023-11-19T14:52:53;5.40;;;4.72;;
83026;SDS011;72842;56.038;12.706;2023-11-19T14:55:19;6.63;;;5.05;;
83026;SDS011;72842;56.038;12.706;2023-11-19T14:57:44;5.55;;;3.90;;
83026;SDS011;72842;56.038;12.706;2023-11-19T15:00:10;5.22;;;4.50;;
83026;SDS011;72842;56.038;12.706;2023-11-19T15:02:39;4.88;;;4.38;;
83026;SDS011;72842;56.038;12.706;2023-11-19T15:05:06;6.28;;;4.68;;